createdAt,value
2022-10-18T00:00:54.977Z,72.59
2022-10-18T00:03:37.524Z,72.44
2022-10-18T00:06:06.335Z,72.47
2022-10-18T00:08:34.028Z,72.07
2022-10-18T00:11:01.914Z,72.01
2022-10-18T00:13:29.785Z,71.89
2022-10-18T00:16:01.649Z,71.83
2022-10-18T00:18:30.030Z,72.00
2022-10-18T00:20:58.799Z,71.86
2022-10-18T00:23:27.236Z,71.71
2022-10-18T00:26:17.918Z,71.48
2022-10-18T00:28:46.928Z,71.42
2022-10-18T00:31:26.946Z,71.11
2022-10-18T00:33:57.469Z,71.14
2022-10-18T00:36:26.590Z,70.99
2022-10-18T00:38:54.363Z,70.85
2022-10-18T00:41:26.181Z,70.86
2022-10-18T00:44:04.694Z,70.57
2022-10-18T00:46:44.555Z,70.31
2022-10-18T00:49:16.511Z,70.23
2022-10-18T00:51:48.593Z,70.10
2022-10-18T00:54:18.213Z,69.82
2022-10-18T00:56:46.382Z,69.86
2022-10-18T00:59:16.810Z,69.45
2022-10-18T01:01:47.855Z,69.19
2022-10-18T01:04:17.454Z,68.94
2022-10-18T01:07:03.702Z,69.15
2022-10-18T01:09:43.504Z,69.13
2022-10-18T01:12:49.754Z,68.93
2022-10-18T01:15:26.707Z,68.65
2022-10-18T01:18:15.367Z,68.60
2022-10-18T01:20:52.351Z,68.49
2022-10-18T01:23:53.480Z,68.29
2022-10-18T01:26:33.192Z,68.21
2022-10-18T01:29:25.595Z,68.18
2022-10-18T01:32:07.442Z,68.06
2022-10-18T01:34:37.860Z,67.88
2022-10-18T01:37:11.474Z,67.76
2022-10-18T01:39:44.347Z,67.58
2022-10-18T01:42:18.276Z,67.43
2022-10-18T01:44:48.400Z,67.10
2022-10-18T01:47:17.901Z,67.46
2022-10-18T01:49:45.872Z,67.21
2022-10-18T01:52:17.531Z,67.09
2022-10-18T01:54:51.149Z,66.98
2022-10-18T01:57:37.081Z,67.00
2022-10-18T02:00:14.669Z,66.78
2022-10-18T02:02:48.719Z,66.44
2022-10-18T02:05:29.894Z,66.31
2022-10-18T02:08:42.485Z,66.56
2022-10-18T02:11:14.044Z,66.33
2022-10-18T02:14:00.565Z,66.33
2022-10-18T02:16:38.030Z,66.24
2022-10-18T02:19:10.707Z,66.15
2022-10-18T02:21:42.096Z,65.85
2022-10-18T02:24:12.878Z,65.83
2022-10-18T02:26:40.709Z,65.81
2022-10-18T02:29:09.154Z,65.62
2022-10-18T02:31:43.870Z,65.67
2022-10-18T02:34:27.210Z,65.37
2022-10-18T02:37:04.810Z,65.35
2022-10-18T02:39:46.086Z,65.25
2022-10-18T02:42:15.067Z,65.16
2022-10-18T02:44:43.043Z,65.16
2022-10-18T02:47:12.255Z,65.29
2022-10-18T02:49:40.125Z,64.89
2022-10-18T02:52:07.842Z,64.80
2022-10-18T02:54:35.669Z,64.87
2022-10-18T02:57:03.438Z,64.87
2022-10-18T02:59:31.200Z,64.97
2022-10-18T03:01:58.972Z,64.99
2022-10-18T03:06:59.280Z,64.79
2022-10-18T03:09:27.176Z,64.67
2022-10-18T03:11:54.878Z,64.85
2022-10-18T03:14:22.668Z,64.79
2022-10-18T03:16:50.419Z,65.01
2022-10-18T03:19:18.165Z,64.65
2022-10-18T03:21:45.931Z,64.61
2022-10-18T03:24:13.704Z,65.01
2022-10-18T03:26:41.412Z,64.85
2022-10-18T03:29:10.869Z,64.77
2022-10-18T03:31:39.058Z,64.90
2022-10-18T03:34:06.923Z,64.89
2022-10-18T03:36:34.899Z,64.93
2022-10-18T03:39:02.602Z,64.78
2022-10-18T03:41:30.279Z,64.67
2022-10-18T03:43:58.000Z,64.67
2022-10-18T03:46:25.972Z,64.60
2022-10-18T03:48:53.743Z,64.71
2022-10-18T03:51:21.450Z,64.30
2022-10-18T03:53:49.281Z,64.27
2022-10-18T03:56:16.984Z,64.30
2022-10-18T03:58:44.692Z,64.27
2022-10-18T04:01:12.599Z,64.28
2022-10-18T04:03:40.557Z,64.03
2022-10-18T04:06:10.018Z,63.84
2022-10-18T04:08:37.840Z,64.02
2022-10-18T04:11:09.910Z,63.88
2022-10-18T04:13:37.623Z,63.73
2022-10-18T04:16:05.440Z,63.81
2022-10-18T04:18:33.219Z,64.06
2022-10-18T04:21:00.976Z,63.81
2022-10-18T04:23:28.949Z,63.79
2022-10-18T04:25:56.621Z,63.64
2022-10-18T04:28:24.494Z,63.65
2022-10-18T04:30:53.260Z,63.77
2022-10-18T04:33:21.459Z,63.53
2022-10-18T04:35:52.604Z,63.58
2022-10-18T04:38:20.353Z,63.48
2022-10-18T04:40:48.142Z,63.68
2022-10-18T04:43:16.026Z,63.54
2022-10-18T04:45:48.285Z,63.39
2022-10-18T04:48:16.054Z,63.45
2022-10-18T04:50:44.449Z,63.70
2022-10-18T04:53:16.195Z,63.46
2022-10-18T04:55:45.688Z,63.61
2022-10-18T04:58:13.678Z,63.53
2022-10-18T05:00:42.016Z,63.38
2022-10-18T05:03:12.758Z,63.56
2022-10-18T05:06:00.324Z,63.39
2022-10-18T05:08:28.804Z,63.22
2022-10-18T05:10:56.541Z,63.46
2022-10-18T05:13:24.438Z,63.67
2022-10-18T05:15:52.377Z,63.18
2022-10-18T05:18:20.286Z,63.27
2022-10-18T05:20:48.053Z,63.19
2022-10-18T05:23:15.749Z,63.34
2022-10-18T05:25:44.131Z,63.48
2022-10-18T05:28:34.522Z,63.36
2022-10-18T05:31:07.358Z,63.49
2022-10-18T05:33:35.920Z,63.58
2022-10-18T05:36:04.479Z,63.42
2022-10-18T05:38:32.319Z,63.37
2022-10-18T05:41:04.489Z,63.48
2022-10-18T05:43:32.190Z,63.43
2022-10-18T05:46:00.026Z,63.30
2022-10-18T05:48:27.743Z,63.53
2022-10-18T05:50:59.350Z,63.56
2022-10-18T05:53:37.066Z,63.70
2022-10-18T05:56:07.116Z,63.61
2022-10-18T05:58:35.571Z,63.38
2022-10-18T06:01:05.484Z,63.33
2022-10-18T06:03:33.750Z,63.26
2022-10-18T06:06:07.356Z,63.32
2022-10-18T06:08:36.214Z,63.26
2022-10-18T06:11:08.471Z,63.12
2022-10-18T06:13:41.249Z,63.13
2022-10-18T06:16:09.811Z,62.88
2022-10-18T06:18:38.094Z,62.67
2022-10-18T06:21:07.092Z,62.71
2022-10-18T06:23:35.441Z,62.60
2022-10-18T06:26:08.454Z,62.69
2022-10-18T06:28:37.308Z,62.75
2022-10-18T06:31:06.095Z,62.62
2022-10-18T06:33:36.102Z,62.49
2022-10-18T06:36:10.543Z,62.58
2022-10-18T06:38:38.267Z,62.77
2022-10-18T06:41:07.443Z,62.73
2022-10-18T06:43:35.788Z,62.36
2022-10-18T06:46:06.918Z,62.17
2022-10-18T06:48:40.051Z,62.24
2022-10-18T06:51:09.042Z,62.29
2022-10-18T06:53:44.040Z,62.19
2022-10-18T06:56:21.257Z,62.37
2022-10-18T06:58:49.086Z,61.93
2022-10-18T07:01:18.501Z,62.01
2022-10-18T07:03:47.938Z,62.31
2022-10-18T07:06:18.448Z,62.22
2022-10-18T07:08:48.083Z,61.84
2022-10-18T07:11:18.707Z,61.96
2022-10-18T07:13:46.489Z,62.17
2022-10-18T07:16:18.410Z,61.78
2022-10-18T07:18:51.545Z,61.52
2022-10-18T07:21:22.177Z,61.43
2022-10-18T07:23:51.479Z,61.50
2022-10-18T07:26:20.811Z,61.90
2022-10-18T07:28:51.851Z,61.72
2022-10-18T07:31:20.106Z,61.79
2022-10-18T07:33:47.876Z,61.54
2022-10-18T07:36:16.082Z,61.54
2022-10-18T07:38:44.891Z,61.14
2022-10-18T07:41:13.944Z,61.15
2022-10-18T07:43:43.759Z,60.99
2022-10-18T07:46:12.559Z,60.75
2022-10-18T07:48:40.993Z,60.69
2022-10-18T07:51:09.601Z,60.49
2022-10-18T07:53:37.881Z,60.29
2022-10-18T07:56:11.538Z,60.65
2022-10-18T07:58:39.482Z,60.79
2022-10-18T08:01:08.940Z,60.64
2022-10-18T08:03:38.794Z,60.08
2022-10-18T08:06:09.671Z,60.22
2022-10-18T08:08:39.336Z,60.01
2022-10-18T08:11:15.012Z,59.89
2022-10-18T08:13:43.277Z,60.23
2022-10-18T08:16:17.538Z,60.23
2022-10-18T08:18:45.781Z,60.39
2022-10-18T08:21:15.215Z,60.23
2022-10-18T08:23:43.694Z,59.86
2022-10-18T08:26:14.483Z,59.90
2022-10-18T08:28:49.096Z,59.80
2022-10-18T08:31:26.322Z,60.18
2022-10-18T08:33:57.176Z,59.94
2022-10-18T08:36:25.234Z,59.69
2022-10-18T08:38:52.928Z,59.81
2022-10-18T08:41:26.948Z,59.18
2022-10-18T08:44:16.170Z,59.12
2022-10-18T08:47:04.498Z,59.22
2022-10-18T08:49:46.770Z,59.31
2022-10-18T08:52:29.588Z,59.04
2022-10-18T08:55:11.941Z,59.06
2022-10-18T08:57:39.878Z,58.07
2022-10-18T09:00:19.030Z,57.97
2022-10-18T09:03:00.372Z,58.29
2022-10-18T09:05:39.358Z,58.29
2022-10-18T09:08:46.816Z,57.61
2022-10-18T09:11:17.338Z,58.03
2022-10-18T09:14:04.237Z,57.73
2022-10-18T09:16:59.531Z,57.59
2022-10-18T09:19:55.931Z,57.15
2022-10-18T09:22:53.502Z,54.92
2022-10-18T09:25:45.831Z,53.22
2022-10-18T09:28:30.661Z,49.96
2022-10-18T09:31:14.096Z,49.00
2022-10-18T09:34:19.748Z,47.42
2022-10-18T09:36:51.817Z,47.42
2022-10-18T09:39:25.000Z,48.61
2022-10-18T09:42:28.287Z,49.31
2022-10-18T09:45:02.181Z,49.80
2022-10-18T09:47:37.946Z,49.16
2022-10-18T09:50:27.711Z,49.68
2022-10-18T09:53:19.705Z,50.12
2022-10-18T09:56:06.127Z,50.41
2022-10-18T09:58:44.117Z,50.76
2022-10-18T10:01:15.788Z,51.42
2022-10-18T10:03:44.067Z,51.87
2022-10-18T10:06:11.718Z,52.58
2022-10-18T10:08:47.472Z,52.85
2022-10-18T10:11:40.226Z,53.22
2022-10-18T10:14:12.668Z,53.34
2022-10-18T10:16:57.047Z,52.73
2022-10-18T10:19:24.929Z,52.64
2022-10-18T10:21:57.182Z,52.71
2022-10-18T10:24:53.142Z,52.67
2022-10-18T10:27:44.894Z,52.58
2022-10-18T10:30:34.072Z,52.37
2022-10-18T10:33:02.356Z,52.64
2022-10-18T10:35:35.470Z,53.13
2022-10-18T10:38:24.013Z,53.62
2022-10-18T10:40:52.800Z,53.21
2022-10-18T10:43:44.550Z,53.37
2022-10-18T10:46:15.218Z,53.25
2022-10-18T10:48:47.890Z,53.28
2022-10-18T10:51:31.576Z,53.36
2022-10-18T10:54:08.187Z,53.98
2022-10-18T10:56:50.091Z,54.06
2022-10-18T10:59:20.302Z,53.81
2022-10-18T11:01:50.246Z,54.48
2022-10-18T11:04:28.511Z,54.74
2022-10-18T11:07:14.558Z,54.88
2022-10-18T11:09:51.517Z,54.45
2022-10-18T11:12:28.012Z,54.97
2022-10-18T11:15:18.572Z,55.29
2022-10-18T11:18:05.070Z,55.48
2022-10-18T11:20:44.685Z,55.37
2022-10-18T11:23:14.674Z,55.86
2022-10-18T11:26:12.178Z,56.16
2022-10-18T11:29:05.335Z,56.36
2022-10-18T11:31:43.528Z,56.56
2022-10-18T11:34:45.375Z,56.83
2022-10-18T11:37:29.067Z,56.90
2022-10-18T11:40:35.659Z,57.18
2022-10-18T11:43:03.326Z,57.12
2022-10-18T11:45:56.167Z,57.31
2022-10-18T11:48:42.246Z,57.51
2022-10-18T11:51:38.576Z,57.44
2022-10-18T11:54:41.954Z,57.65
2022-10-18T11:57:43.861Z,57.26
2022-10-18T12:00:39.433Z,57.38
2022-10-18T12:03:20.098Z,57.58
2022-10-18T12:05:50.394Z,57.50
2022-10-18T12:08:39.243Z,57.51
2022-10-18T12:11:14.584Z,57.34
2022-10-18T12:13:50.179Z,57.78
2022-10-18T12:16:38.908Z,57.74
2022-10-18T12:19:36.926Z,57.94
2022-10-18T12:22:32.924Z,57.34
2022-10-18T12:25:01.949Z,57.36
2022-10-18T12:27:44.442Z,57.11
2022-10-18T12:30:40.967Z,57.48
2022-10-18T12:33:27.623Z,57.56
2022-10-18T12:36:14.183Z,57.28
2022-10-18T12:38:45.049Z,57.51
2022-10-18T12:41:31.172Z,57.73
2022-10-18T12:44:47.232Z,58.04
2022-10-18T12:47:24.281Z,58.05
2022-10-18T12:50:02.350Z,57.73
2022-10-18T12:52:34.628Z,58.02
2022-10-18T12:55:17.648Z,57.81
2022-10-18T12:57:51.753Z,58.26
2022-10-18T13:00:31.487Z,58.39
2022-10-18T13:03:16.614Z,58.42
2022-10-18T13:05:55.985Z,58.49
2022-10-18T13:08:30.418Z,58.71
2022-10-18T13:11:01.353Z,58.98
2022-10-18T13:13:52.899Z,59.22
2022-10-18T13:16:20.602Z,59.41
2022-10-18T13:19:28.521Z,59.54
2022-10-18T13:22:16.136Z,59.41
2022-10-18T13:25:19.414Z,59.45
2022-10-18T13:28:05.085Z,59.31
2022-10-18T13:30:55.119Z,59.37
2022-10-18T13:33:36.562Z,59.29
2022-10-18T13:36:21.629Z,59.48
2022-10-18T13:38:55.660Z,59.77
2022-10-18T13:44:38.325Z,60.41
2022-10-18T13:47:06.922Z,59.91
2022-10-18T13:49:43.619Z,60.23
2022-10-18T13:52:25.694Z,60.43
2022-10-18T13:55:14.788Z,60.39
2022-10-18T13:57:51.540Z,60.75
2022-10-18T14:00:38.167Z,60.62
2022-10-18T14:06:33.116Z,61.13
2022-10-18T14:09:13.921Z,61.45
2022-10-18T14:12:07.184Z,61.47
2022-10-18T14:14:42.875Z,61.57
2022-10-18T14:17:28.879Z,61.43
2022-10-18T14:20:24.793Z,61.43
2022-10-18T14:23:20.460Z,61.50
2022-10-18T14:25:48.533Z,61.63
2022-10-18T14:28:21.745Z,61.52
2022-10-18T14:30:58.001Z,61.59
2022-10-18T14:33:25.810Z,61.81
2022-10-18T14:36:03.678Z,61.63
2022-10-18T14:38:31.750Z,61.82
2022-10-18T14:41:16.916Z,61.83
2022-10-18T14:43:46.626Z,61.89
2022-10-18T14:46:30.167Z,62.01
2022-10-18T14:49:01.983Z,62.06
2022-10-18T14:51:34.778Z,62.67
2022-10-18T14:54:03.254Z,63.00
2022-10-18T14:56:36.838Z,63.26
2022-10-18T14:59:11.805Z,63.47
2022-10-18T15:01:39.629Z,63.68
2022-10-18T15:04:11.666Z,64.07
2022-10-18T15:06:43.825Z,64.35
2022-10-18T15:09:15.898Z,64.47
2022-10-18T15:11:45.312Z,64.65
2022-10-18T15:14:19.714Z,64.95
2022-10-18T15:16:50.450Z,65.17
2022-10-18T15:19:18.080Z,65.50
2022-10-18T15:22:19.855Z,65.73
2022-10-18T15:24:44.440Z,66.04
2022-10-18T15:27:21.904Z,66.02
2022-10-18T15:29:50.231Z,66.16
2022-10-18T15:32:31.706Z,66.66
2022-10-18T15:35:09.939Z,67.22
2022-10-18T15:37:44.034Z,67.65
2022-10-18T15:40:23.776Z,67.93
2022-10-18T15:42:53.992Z,67.87
2022-10-18T15:45:24.950Z,68.16
2022-10-18T15:48:09.436Z,68.47
2022-10-18T15:50:42.753Z,69.05
2022-10-18T15:53:42.791Z,69.38
2022-10-18T15:56:13.840Z,70.18
2022-10-18T15:58:46.827Z,70.93
2022-10-18T16:01:37.280Z,71.56
2022-10-18T16:04:12.152Z,72.18
2022-10-18T16:06:40.079Z,72.53
2022-10-18T16:09:15.684Z,72.51
2022-10-18T16:11:43.952Z,72.77
2022-10-18T16:14:11.656Z,73.00
2022-10-18T16:16:40.499Z,73.07
2022-10-18T16:19:13.691Z,73.27
2022-10-18T16:21:42.586Z,73.35
2022-10-18T16:24:10.758Z,73.55
2022-10-18T16:26:38.738Z,73.77
2022-10-18T16:29:07.524Z,73.84
2022-10-18T16:31:35.404Z,73.97
2022-10-18T16:34:03.273Z,74.07
2022-10-18T16:36:33.405Z,74.24
2022-10-18T16:39:10.439Z,74.09
2022-10-18T16:41:38.238Z,73.94
2022-10-18T16:44:06.172Z,73.91
2022-10-18T16:46:35.524Z,73.97
2022-10-18T16:49:05.030Z,73.83
2022-10-18T16:51:33.203Z,73.93
2022-10-18T16:54:00.899Z,74.00
2022-10-18T16:56:31.718Z,74.16
2022-10-18T16:59:00.505Z,74.14
2022-10-18T17:01:28.460Z,74.06
2022-10-18T17:03:56.266Z,74.04
2022-10-18T17:06:29.483Z,74.36
2022-10-18T17:08:57.978Z,74.51
2022-10-18T17:11:28.372Z,74.58
2022-10-18T17:13:56.226Z,74.62
2022-10-18T17:19:04.851Z,75.04
2022-10-18T17:21:33.688Z,75.13
2022-10-18T17:24:04.392Z,75.17
2022-10-18T17:26:33.283Z,75.16
2022-10-18T17:29:06.267Z,75.28
2022-10-18T17:31:35.723Z,75.64
2022-10-18T17:34:04.471Z,75.91
2022-10-18T17:36:33.553Z,75.93
2022-10-18T17:39:01.635Z,75.89
2022-10-18T17:41:29.522Z,76.01
2022-10-18T17:43:57.395Z,76.09
2022-10-18T17:46:25.212Z,75.99
2022-10-18T17:48:53.761Z,76.02
2022-10-18T17:51:22.536Z,75.75
2022-10-18T17:53:50.410Z,75.57
2022-10-18T17:56:18.176Z,75.60
2022-10-18T17:58:49.857Z,75.71
2022-10-18T18:01:20.968Z,75.68
2022-10-18T18:03:48.954Z,75.42
2022-10-18T18:06:31.426Z,75.29
2022-10-18T18:09:01.999Z,75.37
2022-10-18T18:11:29.962Z,75.19
2022-10-18T18:13:58.655Z,75.08
2022-10-18T18:16:28.621Z,74.98
2022-10-18T18:18:58.284Z,74.65
2022-10-18T18:21:27.496Z,74.69
2022-10-18T18:23:55.461Z,74.65
2022-10-18T18:26:23.945Z,74.59
2022-10-18T18:28:52.608Z,74.51
2022-10-18T18:31:23.569Z,74.43
2022-10-18T18:33:52.966Z,74.49
2022-10-18T18:36:21.772Z,74.81
2022-10-18T18:38:55.493Z,74.98
2022-10-18T18:41:27.043Z,74.80
2022-10-18T18:43:54.686Z,74.64
2022-10-18T18:46:23.431Z,74.43
2022-10-18T18:48:51.551Z,74.30
2022-10-18T18:51:21.996Z,74.34
2022-10-18T18:53:49.681Z,74.51
2022-10-18T18:56:25.111Z,74.47
2022-10-18T18:58:54.311Z,74.60
2022-10-18T19:01:25.222Z,74.81
2022-10-18T19:03:55.475Z,74.76
2022-10-18T19:06:29.587Z,74.73
2022-10-18T19:09:01.559Z,74.93
2022-10-18T19:11:33.531Z,74.98
2022-10-18T19:14:02.400Z,75.14
2022-10-18T19:16:34.469Z,75.09
2022-10-18T19:19:05.374Z,75.18
2022-10-18T19:21:39.211Z,75.13
2022-10-18T19:24:07.924Z,75.07
2022-10-18T19:26:50.619Z,75.07
2022-10-18T19:29:24.660Z,74.90
2022-10-18T19:31:55.363Z,74.93
2022-10-18T19:34:25.574Z,75.10
2022-10-18T19:36:53.270Z,75.38
2022-10-18T19:39:23.774Z,75.64
2022-10-18T19:41:58.005Z,75.71
2022-10-18T19:44:29.055Z,75.88
2022-10-18T19:46:57.845Z,76.13
2022-10-18T19:49:26.138Z,76.05
2022-10-18T19:51:54.305Z,76.20
2022-10-18T19:54:22.177Z,76.13
2022-10-18T19:56:49.940Z,76.12
2022-10-18T19:59:18.227Z,76.25
2022-10-18T20:01:46.007Z,76.07
2022-10-18T20:04:14.467Z,76.06
2022-10-18T20:06:43.274Z,76.25
2022-10-18T20:09:14.823Z,76.25
2022-10-18T20:11:45.767Z,76.23
2022-10-18T20:14:13.584Z,76.15
2022-10-18T20:16:41.410Z,75.87
2022-10-18T20:19:10.417Z,76.01
2022-10-18T20:21:39.509Z,75.97
2022-10-18T20:24:07.887Z,75.82
2022-10-18T20:26:36.008Z,75.74
2022-10-18T20:29:04.187Z,75.63
2022-10-18T20:31:35.772Z,75.83
2022-10-18T20:34:07.160Z,75.72
2022-10-18T20:36:35.839Z,75.64
2022-10-18T20:39:05.106Z,75.76
2022-10-18T20:41:41.057Z,75.86
2022-10-18T20:44:13.638Z,76.02
2022-10-18T20:46:42.360Z,76.21
2022-10-18T20:49:15.329Z,76.19
2022-10-18T20:51:43.265Z,76.32
2022-10-18T20:54:12.037Z,76.50
2022-10-18T20:56:39.776Z,76.61
2022-10-18T20:59:10.117Z,76.73
2022-10-18T21:01:39.474Z,76.87
2022-10-18T21:04:10.458Z,77.02
2022-10-18T21:06:41.999Z,77.23
2022-10-18T21:09:18.790Z,77.38
2022-10-18T21:11:49.550Z,77.39
2022-10-18T21:14:20.084Z,77.36
2022-10-18T21:16:48.876Z,77.38
2022-10-18T21:19:26.407Z,77.46
2022-10-18T21:21:56.996Z,77.55
2022-10-18T21:24:25.917Z,77.49
2022-10-18T21:26:54.896Z,77.66
2022-10-18T21:29:27.035Z,77.52
2022-10-18T21:31:58.092Z,77.75
2022-10-18T21:34:26.361Z,77.92
2022-10-18T21:36:54.247Z,78.07
2022-10-18T21:41:56.811Z,78.09
2022-10-18T21:44:24.802Z,78.17
2022-10-18T21:46:52.521Z,78.24
2022-10-18T21:49:23.368Z,78.19
2022-10-18T21:51:51.175Z,78.31
2022-10-18T21:54:19.077Z,78.14
2022-10-18T21:56:46.818Z,78.28
2022-10-18T21:59:14.534Z,78.17
2022-10-18T22:01:44.299Z,78.22
2022-10-18T22:04:21.552Z,78.24
2022-10-18T22:06:50.078Z,78.48
2022-10-18T22:09:18.357Z,78.42
2022-10-18T22:11:50.715Z,78.34
2022-10-18T22:14:18.477Z,78.45
2022-10-18T22:16:46.364Z,78.48
2022-10-18T22:19:14.441Z,78.33
2022-10-18T22:21:42.515Z,78.31
2022-10-18T22:24:10.592Z,78.14
2022-10-18T22:26:40.666Z,78.12
2022-10-18T22:29:20.353Z,78.04
2022-10-18T22:31:50.554Z,78.32
2022-10-18T22:34:24.014Z,78.33
2022-10-18T22:36:51.747Z,78.07
2022-10-18T22:39:19.927Z,77.77
2022-10-18T22:41:47.890Z,77.73
2022-10-18T22:44:15.769Z,77.87
2022-10-18T22:46:43.707Z,77.90
2022-10-18T22:49:12.223Z,77.73
2022-10-18T22:51:40.922Z,77.75
2022-10-18T22:54:08.981Z,77.78
2022-10-18T22:56:36.862Z,77.80
2022-10-18T22:59:04.732Z,77.91
2022-10-18T23:01:32.429Z,78.01
2022-10-18T23:04:01.330Z,77.88
2022-10-18T23:06:31.758Z,77.65
2022-10-18T23:09:01.952Z,77.36
2022-10-18T23:11:29.921Z,77.39
2022-10-18T23:13:57.689Z,77.54
2022-10-18T23:16:25.550Z,77.32
2022-10-18T23:18:55.574Z,77.34
2022-10-18T23:21:25.825Z,77.51
2022-10-18T23:23:55.306Z,77.48
2022-10-18T23:26:25.827Z,77.64
2022-10-18T23:28:54.431Z,77.83
2022-10-18T23:31:24.075Z,77.84
2022-10-18T23:33:54.130Z,77.86
2022-10-18T23:36:22.765Z,77.77
2022-10-18T23:38:50.991Z,77.86
2022-10-18T23:41:19.092Z,77.70
2022-10-18T23:43:47.781Z,77.63
2022-10-18T23:46:17.416Z,77.60
2022-10-18T23:48:46.508Z,77.15
2022-10-18T23:51:15.156Z,76.95
2022-10-18T23:53:42.984Z,77.00
2022-10-18T23:56:15.841Z,76.88
2022-10-18T23:58:44.952Z,76.97
